METAR AND TAF INFORMATION
METAR FOR KPHX
KPHX 270551Z 30005KT 10SM FEW075 SCT100 OVC230 21/03 A2983 RMK AO2 SLP088 T02110033 10239 20200 58001
KPHX 270451Z 00000KT 10SM FEW075 BKN100 OVC170 22/03 A2983 RMK AO2 SLP089 T02220028
KPHX 270351Z 00000KT 10SM FEW090 BKN130 OVC170 21/04 A2983 RMK AO2 SLP091 T02110044
KPHX 270520Z 2706/2812 VRB03KT P6SM SCT080 BKN100 OVC180
FM271200 22008KT P6SM FEW080 SCT250
FM271600 26007KT P6SM FEW080 SCT250
FM280500 12004KT P6SM FEW250

 AIRPORT MAP

 RUNWAY INFORMATION
Runway 07L Runway length 10300 ft Runway width 150 ft
Runway elevation 1110 ft Runway displaced threshold 0 ft Runway heading 90
Runway 25R Runway length 10300 ft Runway width 150 ft
Runway elevation 1134 ft Runway displaced threshold 0 ft Runway heading 270
Runway 07R Runway length 7800 ft Runway width 150 ft
Runway elevation 1111 ft Runway displaced threshold 0 ft Runway heading 90
Runway 25L Runway length 7800 ft Runway width 150 ft
Runway elevation 1126 ft Runway displaced threshold 0 ft Runway heading 270
Runway 08 Runway length 11489 ft Runway width 150 ft
Runway elevation 1113 ft Runway displaced threshold 898 ft Runway heading 90
Runway 26 Runway length 11489 ft Runway width 150 ft
Runway elevation 1135 ft Runway displaced threshold 0 ft Runway heading 270

 AIRPORT FREQUENCIES
Type A/D Name APP/DEP Frequency 124.1 MHZ
Type ATIS Name ATIS Frequency 127.575 MHZ
Type CLD Name CLNC DEL Frequency 118.1 MHZ
Type GND Name GND Frequency 119.75 MHZ
Type POST Name ANG COMD P Frequency 140 MHZ
Type RDO Name PRESCOTT R Frequency 122.2 MHZ
Type TWR Name TWR Frequency 118.7 MHZ
Type UNIC Name UNICOM Frequency 122.95 MHZ

 AIRPORT NEAR NAVIGATION AIDS

-